This is the latest recevied weather packets stored in our database for station/object KQ7A. If no packets are shown the sender has not sent any weather packets the latest 10 day(s).
| Time | Temp. | Humidity | Pressure | Rain* | Wind** | Luminosity | Snow |
|---|---|---|---|---|---|---|---|
| 1788439328 | 8.33° C | 47% | 1016.7 hPa | 0 mm | - | 0 W/m² | - |
| 1788439027 | 7.78° C | 54% | 1016.9 hPa | 0 mm | - | 0 W/m² | - |
| 1788438726 | 8.89° C | 51% | 1017 hPa | 0 mm | - | 0 W/m² | - |
| 1788438420 | 8.33° C | 50% | 1017.1 hPa | 0 mm | - | 0 W/m² | - |
| 1788438115 | 8.33° C | 49% | 1017.1 hPa | 0 mm | - | 0 W/m² | - |
| 1788437813 | 8.33° C | 50% | 1017 hPa | 0 mm | - | 0 W/m² | - |
| 1788437510 | 8.33° C | 54% | 1017.4 hPa | 0 mm | - | 0 W/m² | - |
| 1788437209 | 8.33° C | 51% | 1017 hPa | 0 mm | - | 0 W/m² | - |
| 1788436903 | 8.33° C | 49% | 1017.3 hPa | 0 mm | - | 0 W/m² | - |
| 1788436601 | 8.33° C | 53% | 1017.5 hPa | 0 mm | - | 0 W/m² | - |
| 1788436297 | 8.89° C | 52% | 1017.3 hPa | 0 mm | - | 0 W/m² | - |
| 1788435992 | 8.89° C | 50% | 1017.4 hPa | 0 mm | - | 0 W/m² | - |
| 1788435687 | 10° C | 48% | 1017.4 hPa | 0 mm | - | 0 W/m² | - |
| 1788435383 | 11.11° C | 44% | 1017.3 hPa | 0 mm | - | 0 W/m² | - |
| 1788435079 | 11.67° C | 39% | 1017.4 hPa | 0 mm | - | 0 W/m² | - |
| 1788434775 | 11.67° C | 40% | 1017.3 hPa | 0 mm | - | 0 W/m² | - |
| 1788434474 | 12.22° C | 40% | 1017.4 hPa | 0 mm | - | 0 W/m² | - |
| 1788434174 | 12.22° C | 40% | 1017.4 hPa | 0 mm | - | 0 W/m² | - |
| 1788433869 | 12.22° C | 39% | 1017.6 hPa | 0 mm | - | 0 W/m² | - |
| 1788433565 | 12.78° C | 38% | 1017.6 hPa | 0 mm | - | 0 W/m² | - |
| 1788433260 | 13.33° C | 37% | 1017.7 hPa | 0 mm | - | 0 W/m² | - |
| 1788432955 | 12.78° C | 38% | 1017.4 hPa | 0 mm | - | 0 W/m² | - |
| 1788432649 | 12.78° C | 40% | 1017.7 hPa | 0 mm | - | 0 W/m² | - |
| 1788432344 | 12.22° C | 41% | 1017.4 hPa | 0 mm | - | 0 W/m² | - |
| 1788432040 | 12.22° C | 40% | 1017.7 hPa | 0 mm | - | 0 W/m² | - |
* Rain latest hour (hover to see other rain measurements)
** Current wind speed in m/s (hover to see current wind gust speed)